Time;durP1;ratioP1;P1;durP2;ratioP2;P2;SDS_P1;SDS_P2;PMS_P1;PMS_P2;Temp;Humidity;BMP_temperature;BMP_pressure;BME280_temperature;BME280_humidity;BME280_pressure;Samples;Min_cycle;Max_cycle;Signal;HPM_P1;HPM_P2
2023/11/11 00:00:06;;;;;;;6.57;5.93;;;8.10;99.90;;;;;;5060545;28;20086;-36
2023/11/11 00:02:32;;;;;;;6.57;5.97;;;8.00;99.90;;;;;;5071969;28;20025;-36
2023/11/11 00:04:58;;;;;;;6.07;5.47;;;8.00;99.90;;;;;;5061665;28;20387;-35
2023/11/11 00:07:24;;;;;;;6.68;5.95;;;8.00;99.90;;;;;;5069665;28;20471;-36
2023/11/11 00:09:50;;;;;;;6.57;5.70;;;8.00;99.90;;;;;;5065245;28;20032;-35
2023/11/11 00:12:17;;;;;;;5.55;4.60;;;7.90;99.90;;;;;;5066601;28;20058;-36
2023/11/11 00:14:45;;;;;;;5.90;5.30;;;7.90;99.90;;;;;;5068245;28;20033;-36
2023/11/11 00:17:11;;;;;;;5.47;4.97;;;7.90;99.90;;;;;;5065325;28;20032;-37
2023/11/11 00:19:37;;;;;;;6.28;5.50;;;7.90;99.90;;;;;;5069186;28;20834;-36
2023/11/11 00:22:04;;;;;;;5.90;5.30;;;7.90;99.90;;;;;;5062814;28;20025;-36
2023/11/11 00:24:30;;;;;;;6.10;5.50;;;7.90;99.90;;;;;;5070289;28;20032;-36
2023/11/11 00:26:56;;;;;;;6.07;5.47;;;7.80;99.90;;;;;;5062715;28;20020;-36
2023/11/11 00:29:28;;;;;;;6.80;6.10;;;7.80;99.90;;;;;;5072031;28;20376;-36
2023/11/11 00:31:54;;;;;;;6.53;5.93;;;7.80;99.90;;;;;;5060975;28;20754;-36
2023/11/11 00:34:20;;;;;;;6.53;5.70;;;7.80;99.90;;;;;;5071783;28;20024;-36
2023/11/11 00:36:47;;;;;;;6.05;5.45;;;7.80;99.90;;;;;;5061454;28;20032;-36
2023/11/11 00:39:13;;;;;;;8.15;6.25;;;7.80;99.90;;;;;;5072407;28;21435;-36
2023/11/11 00:41:39;;;;;;;7.38;6.50;;;7.70;99.90;;;;;;5061516;28;20033;-37
2023/11/11 00:44:08;;;;;;;7.82;6.97;;;7.70;99.90;;;;;;5073679;28;20800;-36
2023/11/11 00:46:44;;;;;;;7.50;6.53;;;7.70;99.90;;;;;;5059670;28;20044;-36
2023/11/11 00:49:09;;;;;;;6.35;5.75;;;7.70;99.90;;;;;;5077862;28;20084;-36
2023/11/11 00:51:39;;;;;;;8.55;6.25;;;7.70;99.90;;;;;;5081415;28;20070;-36
2023/11/11 00:54:09;;;;;;;6.38;5.70;;;7.60;99.90;;;;;;5079980;28;20143;-37
2023/11/11 00:56:35;;;;;;;6.30;5.70;;;7.60;99.90;;;;;;5080758;28;20111;-34
2023/11/11 00:59:01;;;;;;;7.57;6.10;;;7.60;99.90;;;;;;5080173;28;20024;-36
2023/11/11 01:01:27;;;;;;;6.38;5.57;;;7.50;99.90;;;;;;5079494;28;20043;-35
2023/11/11 01:03:52;;;;;;;6.75;6.05;;;7.50;99.90;;;;;;5081052;28;20020;-39
2023/11/11 01:06:18;;;;;;;6.45;5.60;;;7.50;99.90;;;;;;5081270;28;20045;-35
2023/11/11 01:08:45;;;;;;;6.05;5.28;;;7.50;99.90;;;;;;5080310;28;20470;-36
2023/11/11 01:11:11;;;;;;;7.40;5.35;;;7.50;99.90;;;;;;5083600;28;20113;-36
2023/11/11 01:13:37;;;;;;;5.38;4.88;;;7.50;99.90;;;;;;5083754;28;20036;-37
2023/11/11 01:16:03;;;;;;;7.05;5.40;;;7.50;99.90;;;;;;5082922;28;20020;-36
2023/11/11 01:18:30;;;;;;;5.95;4.63;;;7.50;99.90;;;;;;5084469;28;20075;-36
2023/11/11 01:20:57;;;;;;;5.18;4.68;;;7.50;99.90;;;;;;5082931;28;20028;-35
2023/11/11 01:23:26;;;;;;;6.43;5.72;;;7.50;99.90;;;;;;5083371;28;20035;-36
2023/11/11 01:25:51;;;;;;;6.32;5.72;;;7.50;99.90;;;;;;5084074;28;20028;-36
2023/11/11 01:28:17;;;;;;;7.07;5.70;;;7.50;99.90;;;;;;5083170;28;20027;-36
2023/11/11 01:30:43;;;;;;;7.45;5.90;;;7.60;99.90;;;;;;5083596;28;20689;-36
2023/11/11 01:33:09;;;;;;;6.07;5.47;;;7.50;99.90;;;;;;5084395;28;20020;-36
2023/11/11 01:35:34;;;;;;;6.22;5.63;;;7.60;99.90;;;;;;5082689;28;20024;-36
2023/11/11 01:38:00;;;;;;;6.45;5.00;;;7.60;99.90;;;;;;5083484;28;20032;-37
2023/11/11 01:40:26;;;;;;;6.35;5.15;;;7.60;99.90;;;;;;5083380;28;20811;-36
2023/11/11 01:42:58;;;;;;;6.15;5.47;;;7.60;99.90;;;;;;5082855;28;20035;-37
2023/11/11 01:45:24;;;;;;;6.00;5.40;;;7.70;99.90;;;;;;5082819;28;20107;-37
2023/11/11 01:47:54;;;;;;;6.68;4.90;;;7.70;99.90;;;;;;5082962;28;20044;-36
2023/11/11 01:50:20;;;;;;;8.60;4.50;;;7.70;99.90;;;;;;5082613;28;20016;-36
2023/11/11 01:52:46;;;;;;;6.32;4.32;;;7.70;99.90;;;;;;5083093;28;20024;-36
2023/11/11 01:55:12;;;;;;;4.82;4.28;;;7.60;99.90;;;;;;5083046;28;20490;-36
2023/11/11 01:57:40;;;;;;;6.15;4.18;;;7.70;99.90;;;;;;5082856;28;20040;-37
2023/11/11 02:00:12;;;;;;;6.57;4.57;;;7.60;99.90;;;;;;5083262;28;20658;-37
2023/11/11 02:02:39;;;;;;;6.18;3.90;;;7.60;99.90;;;;;;5083848;28;20067;-38
2023/11/11 02:05:07;;;;;;;3.67;3.33;;;7.60;99.90;;;;;;5082611;28;20059;-35
2023/11/11 02:07:33;;;;;;;5.28;3.45;;;7.60;99.90;;;;;;5083423;28;20034;-37
2023/11/11 02:10:02;;;;;;;3.45;3.15;;;7.60;99.90;;;;;;5083498;28;20032;-36
2023/11/11 02:12:32;;;;;;;4.93;3.15;;;7.60;99.90;;;;;;5082020;28;20020;-37
2023/11/11 02:14:58;;;;;;;3.28;2.78;;;7.60;99.90;;;;;;5083284;28;20032;-36
2023/11/11 02:17:25;;;;;;;5.13;3.05;;;7.60;99.90;;;;;;5081594;28;20502;-37
2023/11/11 02:19:52;;;;;;;5.82;3.63;;;7.70;99.90;;;;;;5082808;28;20032;-36
2023/11/11 02:22:17;;;;;;;4.18;3.58;;;7.60;99.90;;;;;;5081145;28;20036;-37
2023/11/11 02:24:44;;;;;;;7.10;3.75;;;7.60;99.90;;;;;;5082694;28;20035;-36
2023/11/11 02:27:11;;;;;;;5.47;3.10;;;7.70;99.90;;;;;;5081689;28;20028;-37
2023/11/11 02:29:46;;;;;;;4.72;2.90;;;7.70;99.90;;;;;;5082898;28;20028;-36
2023/11/11 02:32:12;;;;;;;3.05;2.40;;;7.70;99.90;;;;;;5082251;28;20126;-37
2023/11/11 02:34:38;;;;;;;3.10;2.10;;;7.70;99.90;;;;;;5083008;28;20039;-38
2023/11/11 02:37:04;;;;;;;4.65;2.63;;;7.70;99.90;;;;;;5082260;28;20057;-36
2023/11/11 02:39:30;;;;;;;2.22;2.03;;;7.70;99.90;;;;;;5080709;28;20039;-37
2023/11/11 02:41:55;;;;;;;3.10;1.98;;;7.70;99.90;;;;;;5082066;28;20028;-36
2023/11/11 02:44:21;;;;;;;2.15;1.90;;;7.60;99.90;;;;;;5082346;28;20027;-37
2023/11/11 02:46:46;;;;;;;2.90;2.38;;;7.60;99.90;;;;;;5081799;28;20020;-36
2023/11/11 02:49:13;;;;;;;4.32;2.75;;;7.50;99.90;;;;;;5081011;28;20513;-36
2023/11/11 02:51:41;;;;;;;3.40;2.00;;;7.50;99.90;;;;;;5081849;28;20024;-36
2023/11/11 02:54:07;;;;;;;4.88;2.47;;;7.50;99.90;;;;;;5081299;28;20070;-36
2023/11/11 02:56:32;;;;;;;4.00;2.17;;;7.50;99.90;;;;;;5082245;28;20032;-35
2023/11/11 02:58:58;;;;;;;4.05;2.08;;;7.50;99.90;;;;;;5081970;28;20471;-36
2023/11/11 03:01:23;;;;;;;3.17;1.90;;;7.60;99.90;;;;;;5081880;28;20043;-36
2023/11/11 03:03:49;;;;;;;5.25;2.17;;;7.60;99.90;;;;;;5081411;28;20115;-36
2023/11/11 03:06:15;;;;;;;2.63;1.90;;;7.70;99.90;;;;;;5081254;28;20032;-36
2023/11/11 03:08:41;;;;;;;2.88;1.90;;;7.70;99.90;;;;;;5081935;28;20063;-37
2023/11/11 03:11:12;;;;;;;2.67;1.80;;;7.70;99.90;;;;;;5081689;28;20781;-37
2023/11/11 03:13:38;;;;;;;2.88;1.45;;;7.70;99.90;;;;;;5081639;28;20879;-37
2023/11/11 03:16:07;;;;;;;2.20;1.20;;;7.80;99.90;;;;;;5081859;28;20020;-37
2023/11/11 03:18:32;;;;;;;1.33;0.90;;;7.70;99.90;;;;;;5081226;28;20027;-36
2023/11/11 03:20:58;;;;;;;1.90;0.90;;;7.70;99.90;;;;;;5080787;28;20035;-36
2023/11/11 03:23:23;;;;;;;1.90;0.75;;;7.70;99.90;;;;;;5081704;28;20016;-36
2023/11/11 03:25:49;;;;;;;0.82;0.70;;;7.70;99.90;;;;;;5082165;28;20034;-36
2023/11/11 03:28:14;;;;;;;1.20;0.60;;;7.70;99.90;;;;;;5080615;28;20740;-37
2023/11/11 03:30:41;;;;;;;0.73;0.45;;;7.70;99.90;;;;;;5081872;28;20024;-37
2023/11/11 03:33:06;;;;;;;1.00;0.50;;;7.70;99.90;;;;;;5080135;28;20016;-37
2023/11/11 03:35:32;;;;;;;0.98;0.50;;;7.70;99.90;;;;;;5080984;28;20467;-37
2023/11/11 03:37:57;;;;;;;0.93;0.60;;;7.70;99.90;;;;;;5081540;28;20781;-36
2023/11/11 03:40:23;;;;;;;1.63;0.52;;;7.70;99.90;;;;;;5080978;28;20028;-38
2023/11/11 03:42:49;;;;;;;0.40;0.40;;;7.60;99.90;;;;;;5081304;28;20027;-36
2023/11/11 03:45:15;;;;;;;1.65;0.40;;;7.60;99.90;;;;;;5080509;28;20031;-37
2023/11/11 03:47:40;;;;;;;0.63;0.43;;;7.60;99.90;;;;;;5081377;28;20420;-36
2023/11/11 03:50:07;;;;;;;0.90;0.40;;;7.50;99.90;;;;;;5069384;28;20028;-36
2023/11/11 03:52:32;;;;;;;1.52;0.60;;;7.50;99.90;;;;;;5079657;28;20741;-36
2023/11/11 03:54:58;;;;;;;0.93;0.43;;;7.50;99.90;;;;;;5072233;28;20111;-37
2023/11/11 03:57:24;;;;;;;1.88;0.50;;;7.50;99.90;;;;;;5076326;28;20421;-36
2023/11/11 03:59:49;;;;;;;1.27;0.63;;;7.50;99.90;;;;;;5074961;28;20475;-36
2023/11/11 04:02:15;;;;;;;2.60;0.70;;;7.50;99.90;;;;;;5073768;28;20032;-37
2023/11/11 04:04:44;;;;;;;1.08;0.65;;;7.50;99.90;;;;;;5075256;28;20032;-36
2023/11/11 04:07:13;;;;;;;1.30;0.77;;;7.60;99.90;;;;;;5071979;28;20056;-37
2023/11/11 04:09:41;;;;;;;2.92;1.00;;;7.60;99.90;;;;;;5078769;28;20028;-36
2023/11/11 04:12:07;;;;;;;2.20;0.70;;;7.70;99.90;;;;;;5070342;28;20047;-36
2023/11/11 04:14:34;;;;;;;1.35;0.90;;;7.70;99.90;;;;;;5079286;28;20063;-37
2023/11/11 04:17:01;;;;;;;2.25;1.02;;;7.70;99.90;;;;;;5068694;28;20048;-37
2023/11/11 04:19:27;;;;;;;3.70;1.17;;;7.60;99.90;;;;;;5080421;28;20107;-36
2023/11/11 04:21:54;;;;;;;3.53;1.13;;;7.60;99.90;;;;;;5068580;28;20034;-36
2023/11/11 04:24:20;;;;;;;2.17;1.25;;;7.60;99.90;;;;;;5080244;28;20841;-36
2023/11/11 04:26:46;;;;;;;2.30;1.10;;;7.60;99.90;;;;;;5068408;28;20029;-36
2023/11/11 04:29:11;;;;;;;3.05;1.33;;;7.50;99.90;;;;;;5080499;28;20429;-35
2023/11/11 04:31:37;;;;;;;3.85;1.10;;;7.50;99.90;;;;;;5067998;28;20039;-37
2023/11/11 04:34:03;;;;;;;4.05;1.13;;;7.50;99.90;;;;;;5079817;28;20135;-37
2023/11/11 04:36:29;;;;;;;3.80;1.60;;;7.50;99.90;;;;;;5070982;28;20119;-36
2023/11/11 04:38:54;;;;;;;2.95;0.88;;;7.50;99.90;;;;;;5076798;28;20025;-37
2023/11/11 04:41:21;;;;;;;1.63;1.05;;;7.50;99.90;;;;;;5073203;28;20040;-37
2023/11/11 04:43:46;;;;;;;2.92;1.10;;;7.60;99.90;;;;;;5075355;28;20433;-37
2023/11/11 04:46:13;;;;;;;3.80;1.30;;;7.60;99.90;;;;;;5078278;28;20016;-38
2023/11/11 04:48:42;;;;;;;5.05;1.35;;;7.60;99.90;;;;;;5078855;28;20047;-37
2023/11/11 04:51:08;;;;;;;3.22;1.10;;;7.60;99.90;;;;;;5083379;28;20039;-37
2023/11/11 04:53:34;;;;;;;1.85;1.30;;;7.60;99.90;;;;;;5083932;28;20059;-36
2023/11/11 04:56:00;;;;;;;2.45;1.17;;;7.70;99.90;;;;;;5084255;28;20051;-37
2023/11/11 04:58:26;;;;;;;4.57;1.45;;;7.60;99.90;;;;;;5084204;28;20114;-37
2023/11/11 05:00:52;;;;;;;4.05;1.40;;;7.70;99.90;;;;;;5083715;28;20386;-37
2023/11/11 05:03:18;;;;;;;3.63;1.20;;;7.70;99.90;;;;;;5084231;28;20555;-37
2023/11/11 05:05:46;;;;;;;1.95;0.90;;;7.70;99.90;;;;;;5084407;28;20032;-37
2023/11/11 05:08:12;;;;;;;1.35;0.80;;;7.70;99.90;;;;;;5083393;28;20024;-37
2023/11/11 05:10:38;;;;;;;1.70;1.00;;;7.70;99.90;;;;;;5085061;28;20766;-36
2023/11/11 05:13:08;;;;;;;1.80;1.02;;;7.70;99.90;;;;;;5083903;28;20024;-36
2023/11/11 05:15:42;;;;;;;3.15;1.48;;;7.80;99.90;;;;;;5084353;28;20035;-36
2023/11/11 05:18:11;;;;;;;2.80;1.10;;;7.70;99.90;;;;;;5084415;28;20028;-35
2023/11/11 05:20:39;;;;;;;3.33;1.35;;;7.70;99.90;;;;;;5084168;28;20051;-44
2023/11/11 05:23:09;;;;;;;2.35;1.08;;;7.70;99.90;;;;;;5084179;28;20108;-37
2023/11/11 05:25:37;;;;;;;3.92;1.05;;;7.70;99.90;;;;;;5084585;28;20036;-37
2023/11/11 05:28:03;;;;;;;0.80;0.60;;;7.70;99.90;;;;;;5082850;28;20535;-36
2023/11/11 05:30:28;;;;;;;3.85;1.70;;;7.70;99.90;;;;;;5083649;28;20032;-36
2023/11/11 05:32:54;;;;;;;3.60;1.17;;;7.70;99.90;;;;;;5083765;28;20110;-38
2023/11/11 05:35:20;;;;;;;2.70;0.80;;;7.80;99.90;;;;;;5082859;28;20036;-37
2023/11/11 05:37:47;;;;;;;2.38;0.82;;;7.80;99.90;;;;;;5084171;28;20024;-37
2023/11/11 05:40:17;;;;;;;2.03;0.82;;;7.70;99.90;;;;;;5082919;28;20036;-38
2023/11/11 05:42:44;;;;;;;2.67;0.65;;;7.70;99.90;;;;;;5082802;28;20546;-37
2023/11/11 05:45:11;;;;;;;1.13;0.60;;;7.70;99.90;;;;;;5082990;28;20024;-38
2023/11/11 05:47:36;;;;;;;1.52;0.70;;;7.70;99.90;;;;;;5081917;28;20040;-37
2023/11/11 05:50:02;;;;;;;2.15;0.80;;;7.70;99.90;;;;;;5071637;28;20036;-37
2023/11/11 05:52:28;;;;;;;2.65;0.93;;;7.60;99.90;;;;;;5082706;28;20063;-37
2023/11/11 05:54:54;;;;;;;1.52;0.80;;;7.60;99.90;;;;;;5070693;28;20028;-37
2023/11/11 05:57:23;;;;;;;2.13;0.85;;;7.60;99.90;;;;;;5081429;28;20564;-36
2023/11/11 05:59:48;;;;;;;2.25;1.20;;;7.60;99.90;;;;;;5070786;28;20096;-37
2023/11/11 06:02:15;;;;;;;1.10;0.82;;;7.60;99.90;;;;;;5082594;28;20024;-38
2023/11/11 06:04:41;;;;;;;1.17;0.70;;;7.60;99.90;;;;;;5071411;28;20060;-37
2023/11/11 06:07:07;;;;;;;2.17;0.90;;;7.60;99.90;;;;;;5082700;28;20156;-37
2023/11/11 06:09:35;;;;;;;2.97;1.08;;;7.60;99.90;;;;;;5073155;28;20460;-36
2023/11/11 06:12:02;;;;;;;2.05;1.02;;;7.60;99.90;;;;;;5080018;28;20085;-36
2023/11/11 06:14:27;;;;;;;4.05;1.30;;;7.60;99.90;;;;;;5075363;28;20102;-37
2023/11/11 06:16:53;;;;;;;2.25;1.10;;;7.50;99.90;;;;;;5077455;28;20028;-36
2023/11/11 06:19:19;;;;;;;2.53;1.00;;;7.60;99.90;;;;;;5078015;28;20024;-36
2023/11/11 06:21:48;;;;;;;1.38;0.80;;;7.60;99.90;;;;;;5075052;28;20043;-37
2023/11/11 06:24:13;;;;;;;0.90;0.80;;;7.60;99.90;;;;;;5079878;28;20024;-37
2023/11/11 06:26:39;;;;;;;2.08;0.70;;;7.60;99.90;;;;;;5073099;28;20039;-37
2023/11/11 06:29:06;;;;;;;1.50;0.80;;;7.60;99.90;;;;;;5081910;28;20024;-36
2023/11/11 06:31:32;;;;;;;1.63;0.85;;;7.60;99.90;;;;;;5071907;28;20131;-37
2023/11/11 06:33:58;;;;;;;0.73;0.50;;;7.60;99.90;;;;;;5081567;28;20664;-37
2023/11/11 06:36:24;;;;;;;1.77;0.90;;;7.60;99.90;;;;;;5071564;28;20024;-36
2023/11/11 06:38:50;;;;;;;1.02;0.60;;;7.60;99.90;;;;;;5082268;28;20364;-37
2023/11/11 06:41:17;;;;;;;1.00;0.80;;;7.50;99.90;;;;;;5069115;28;20182;-36
2023/11/11 06:43:42;;;;;;;1.38;0.77;;;7.50;99.90;;;;;;5082724;28;20020;-36
2023/11/11 06:46:12;;;;;;;0.80;0.70;;;7.50;99.90;;;;;;5069348;28;20403;-37
2023/11/11 06:48:38;;;;;;;1.77;1.00;;;7.50;99.90;;;;;;5056572;28;20393;-36
2023/11/11 06:51:04;;;;;;;1.98;0.90;;;7.50;99.90;;;;;;5076218;28;20050;-37
2023/11/11 06:53:29;;;;;;;0.80;0.80;;;7.50;99.90;;;;;;5081914;28;20081;-37
2023/11/11 06:55:55;;;;;;;2.65;0.77;;;7.60;99.90;;;;;;5081972;28;20024;-38
2023/11/11 06:58:21;;;;;;;1.02;1.00;;;7.60;99.90;;;;;;5081627;28;20020;-36
2023/11/11 07:00:46;;;;;;;2.33;0.80;;;7.50;99.90;;;;;;5081859;28;20040;-37
2023/11/11 07:03:12;;;;;;;1.70;1.05;;;7.60;99.90;;;;;;5081961;28;20748;-37
2023/11/11 07:05:38;;;;;;;1.20;1.00;;;7.50;99.90;;;;;;5081782;28;20510;-37
2023/11/11 07:08:05;;;;;;;1.73;1.10;;;7.50;99.90;;;;;;5081950;28;20036;-36
2023/11/11 07:10:31;;;;;;;1.13;1.02;;;7.50;99.90;;;;;;5082288;28;20028;-37
2023/11/11 07:12:57;;;;;;;1.38;1.27;;;7.50;99.90;;;;;;5081488;28;20039;-36
2023/11/11 07:15:22;;;;;;;1.25;1.08;;;7.50;99.90;;;;;;5082137;28;20024;-37
2023/11/11 07:17:52;;;;;;;1.15;0.90;;;7.40;99.90;;;;;;5082186;28;20024;-37
2023/11/11 07:20:21;;;;;;;2.53;1.70;;;7.40;99.90;;;;;;5080751;28;20538;-36
2023/11/11 07:22:51;;;;;;;2.55;1.08;;;7.30;99.90;;;;;;5081781;28;20035;-36
2023/11/11 07:25:18;;;;;;;1.75;0.90;;;7.30;99.90;;;;;;5081417;28;20028;-36
2023/11/11 07:27:43;;;;;;;0.93;0.68;;;7.30;99.90;;;;;;5081793;28;20032;-36
2023/11/11 07:30:10;;;;;;;1.13;0.68;;;7.30;99.90;;;;;;5081840;28;20084;-37
2023/11/11 07:32:44;;;;;;;0.98;0.60;;;7.30;99.90;;;;;;5081217;28;20096;-38
2023/11/11 07:35:14;;;;;;;2.53;1.00;;;7.20;99.90;;;;;;5060395;28;20369;-36
2023/11/11 07:37:42;;;;;;;1.30;0.77;;;7.20;99.90;;;;;;5076224;28;20111;-37
2023/11/11 07:40:09;;;;;;;1.60;0.60;;;7.20;99.90;;;;;;5081699;28;20032;-37
2023/11/11 07:42:34;;;;;;;1.63;0.77;;;7.20;99.90;;;;;;5080635;28;20139;-37
2023/11/11 07:45:03;;;;;;;0.95;0.55;;;7.10;99.90;;;;;;5081029;28;20034;-36
2023/11/11 07:47:29;;;;;;;1.40;0.73;;;7.20;99.90;;;;;;5080812;28;20076;-37
2023/11/11 07:50:05;;;;;;;0.77;0.50;;;7.10;99.90;;;;;;5066737;28;20115;-37
2023/11/11 07:52:30;;;;;;;0.77;0.60;;;7.10;99.90;;;;;;5066070;28;20058;-37
2023/11/11 07:54:58;;;;;;;1.35;0.57;;;7.10;99.90;;;;;;5067065;28;20543;-37
2023/11/11 07:57:25;;;;;;;1.27;0.90;;;7.10;99.90;;;;;;5063633;28;20051;-37
2023/11/11 07:59:54;;;;;;;0.60;0.50;;;7.10;99.90;;;;;;5070126;28;20123;-37
2023/11/11 08:02:24;;;;;;;1.13;0.60;;;7.10;99.90;;;;;;5061391;28;20075;-37
2023/11/11 08:04:50;;;;;;;1.10;0.80;;;7.10;99.90;;;;;;5059700;28;20035;-35
2023/11/11 08:07:20;;;;;;;1.63;0.93;;;7.10;99.90;;;;;;5079464;28;20030;-36
2023/11/11 08:09:46;;;;;;;1.67;0.85;;;7.20;99.90;;;;;;5069725;28;20545;-37
2023/11/11 08:12:12;;;;;;;1.42;0.70;;;7.20;99.90;;;;;;5079973;28;20032;-36
2023/11/11 08:14:37;;;;;;;0.85;0.70;;;7.30;99.90;;;;;;5069449;28;20028;-37
2023/11/11 08:17:05;;;;;;;1.20;0.95;;;7.30;99.90;;;;;;5079896;28;20032;-37
2023/11/11 08:19:33;;;;;;;0.90;0.90;;;7.40;99.90;;;;;;5067998;28;20070;-36
2023/11/11 08:21:58;;;;;;;2.58;1.00;;;7.40;99.90;;;;;;5085018;28;20036;-37
2023/11/11 08:24:24;;;;;;;2.78;0.90;;;7.50;99.90;;;;;;5071301;28;20032;-35
2023/11/11 08:26:49;;;;;;;1.90;1.10;;;7.60;99.90;;;;;;5085515;28;20123;-36
2023/11/11 08:29:18;;;;;;;1.77;1.33;;;7.60;99.90;;;;;;5074646;28;20724;-37
2023/11/11 08:31:43;;;;;;;2.17;1.05;;;7.70;99.90;;;;;;5081362;28;20536;-36
2023/11/11 08:34:09;;;;;;;1.60;1.00;;;7.80;99.90;;;;;;5077580;28;20073;-35
2023/11/11 08:36:36;;;;;;;0.80;0.80;;;7.80;99.90;;;;;;5080033;28;20032;-36
2023/11/11 08:39:02;;;;;;;1.23;0.85;;;7.90;99.90;;;;;;5080261;28;20028;-36
2023/11/11 08:41:28;;;;;;;1.42;0.70;;;8.00;99.90;;;;;;5077474;28;20395;-35
2023/11/11 08:43:53;;;;;;;0.77;0.60;;;8.00;99.90;;;;;;5081363;28;20028;-35
2023/11/11 08:46:19;;;;;;;1.02;0.57;;;8.10;99.90;;;;;;5074433;28;20035;-35
2023/11/11 08:48:44;;;;;;;0.82;0.65;;;8.10;99.90;;;;;;5082889;28;20552;-36
2023/11/11 08:51:13;;;;;;;0.93;0.60;;;8.10;99.90;;;;;;5072893;28;20804;-37
2023/11/11 08:53:39;;;;;;;0.60;0.50;;;8.20;99.90;;;;;;5083448;28;20024;-36
2023/11/11 08:56:04;;;;;;;0.80;0.57;;;8.20;99.90;;;;;;5072754;28;20073;-36
2023/11/11 08:58:30;;;;;;;1.02;0.50;;;8.10;99.90;;;;;;5083871;28;20913;-36
2023/11/11 09:00:56;;;;;;;0.52;0.47;;;8.30;99.90;;;;;;5071282;28;20105;-36
2023/11/11 09:03:22;;;;;;;1.27;0.68;;;8.40;99.90;;;;;;5084609;28;20054;-36
2023/11/11 09:05:48;;;;;;;1.02;0.70;;;8.40;99.90;;;;;;5070913;28;20028;-36
2023/11/11 09:08:14;;;;;;;3.78;0.73;;;8.50;99.90;;;;;;5083969;28;20101;-37
2023/11/11 09:10:40;;;;;;;1.63;0.80;;;8.50;99.90;;;;;;5074307;28;20055;-36
2023/11/11 09:13:08;;;;;;;1.20;0.70;;;8.60;99.90;;;;;;5080459;28;20035;-36
2023/11/11 09:15:33;;;;;;;1.65;0.60;;;8.50;99.90;;;;;;5076028;28;20041;-37
2023/11/11 09:18:00;;;;;;;3.42;0.82;;;8.50;99.90;;;;;;5078822;28;20468;-37
2023/11/11 09:20:26;;;;;;;0.70;0.60;;;8.50;99.90;;;;;;5077486;28;20047;-37
2023/11/11 09:22:52;;;;;;;0.88;0.50;;;8.50;99.90;;;;;;5076600;28;20032;-36
2023/11/11 09:25:18;;;;;;;0.50;0.50;;;8.50;99.90;;;;;;5080588;28;20038;-36
2023/11/11 09:27:43;;;;;;;1.17;0.60;;;8.50;99.90;;;;;;5073407;28;20112;-37
2023/11/11 09:30:09;;;;;;;1.77;0.73;;;8.50;99.90;;;;;;5081974;28;20492;-37
2023/11/11 09:32:35;;;;;;;1.75;0.70;;;8.50;99.90;;;;;;5072541;28;20028;-36
2023/11/11 09:35:02;;;;;;;1.77;0.73;;;8.50;99.90;;;;;;5081710;28;20031;-37
2023/11/11 09:37:28;;;;;;;1.35;0.85;;;8.50;99.90;;;;;;5072080;28;20104;-37
2023/11/11 09:39:53;;;;;;;1.20;0.93;;;8.50;99.90;;;;;;5063837;28;20043;-37
2023/11/11 09:42:19;;;;;;;0.98;0.85;;;8.50;99.90;;;;;;5075260;28;20040;-36
2023/11/11 09:44:45;;;;;;;1.45;1.00;;;8.50;99.90;;;;;;5063540;28;20075;-37
2023/11/11 09:47:14;;;;;;;1.70;1.10;;;8.50;99.90;;;;;;5074705;28;20828;-37
2023/11/11 09:49:40;;;;;;;2.78;0.90;;;8.50;99.90;;;;;;5043744;28;20071;-37
2023/11/11 09:52:08;;;;;;;1.63;1.00;;;8.50;99.90;;;;;;5067931;28;20035;-37
2023/11/11 09:54:34;;;;;;;1.77;1.23;;;8.50;99.90;;;;;;5064555;28;20033;-38
2023/11/11 09:57:01;;;;;;;2.00;1.30;;;8.40;99.90;;;;;;5070870;28;20024;-37
2023/11/11 09:59:28;;;;;;;2.95;2.00;;;8.40;99.90;;;;;;5067289;28;20093;-37
2023/11/11 10:01:54;;;;;;;2.25;1.50;;;8.40;99.90;;;;;;5068379;28;20039;-37
2023/11/11 10:04:20;;;;;;;2.67;1.95;;;8.40;99.90;;;;;;5069400;28;20114;-37
2023/11/11 10:06:46;;;;;;;3.28;2.10;;;8.40;99.90;;;;;;5066377;28;20179;-37
2023/11/11 10:09:18;;;;;;;4.55;2.90;;;8.40;99.90;;;;;;5071782;28;20366;-37
2023/11/11 10:11:45;;;;;;;3.33;2.50;;;8.40;99.90;;;;;;5064621;28;20031;-37
2023/11/11 10:14:15;;;;;;;3.08;2.30;;;8.50;99.90;;;;;;5073628;28;20101;-37
2023/11/11 10:16:43;;;;;;;3.15;2.17;;;8.50;99.90;;;;;;5063893;28;20139;-37
2023/11/11 10:19:14;;;;;;;4.13;2.42;;;8.50;99.90;;;;;;5072667;28;20369;-37
2023/11/11 10:21:40;;;;;;;3.47;2.75;;;8.60;99.90;;;;;;5062376;28;20035;-37
2023/11/11 10:24:09;;;;;;;2.83;2.40;;;8.70;99.90;;;;;;5071697;28;20017;-37
2023/11/11 10:26:34;;;;;;;3.50;2.17;;;8.70;99.90;;;;;;5061623;28;20025;-37
2023/11/11 10:29:06;;;;;;;3.88;2.83;;;8.80;99.90;;;;;;5073717;28;20024;-37
2023/11/11 10:31:36;;;;;;;5.27;2.57;;;8.90;99.90;;;;;;5061257;28;20036;-37
2023/11/11 10:34:02;;;;;;;3.83;2.70;;;8.90;99.90;;;;;;5074141;28;20134;-37
2023/11/11 10:36:28;;;;;;;4.43;2.90;;;8.90;99.90;;;;;;5061929;28;20127;-36
2023/11/11 10:38:55;;;;;;;7.47;3.40;;;9.00;99.90;;;;;;5074779;28;20054;-36
2023/11/11 10:41:23;;;;;;;5.25;2.95;;;9.00;99.90;;;;;;5042545;28;20040;-36
2023/11/11 10:43:52;;;;;;;3.63;2.63;;;9.10;99.90;;;;;;5066217;28;20047;-36
2023/11/11 10:46:20;;;;;;;3.55;2.65;;;9.10;99.90;;;;;;5064501;28;20017;-37
2023/11/11 10:48:46;;;;;;;3.60;2.70;;;9.10;99.90;;;;;;5077360;28;20052;-37
2023/11/11 10:51:12;;;;;;;2.72;2.50;;;9.10;99.90;;;;;;5081202;28;20032;-37
2023/11/11 10:53:39;;;;;;;4.82;2.50;;;9.10;99.90;;;;;;5082446;28;20055;-37
2023/11/11 10:56:06;;;;;;;6.28;2.83;;;9.10;99.90;;;;;;5082017;28;20021;-36
2023/11/11 10:58:33;;;;;;;6.32;3.17;;;9.10;99.90;;;;;;5079856;28;20047;-37
2023/11/11 11:00:59;;;;;;;6.03;3.30;;;9.10;99.90;;;;;;5082032;28;20067;-37
2023/11/11 11:03:29;;;;;;;4.47;2.47;;;9.20;99.90;;;;;;5081663;28;20103;-37
2023/11/11 11:06:42;;;;;;;4.38;2.50;;;9.30;99.90;;;;;;5071030;28;20035;-37
2023/11/11 11:09:24;;;;;;;4.60;2.70;;;9.30;99.90;;;;;;4979401;28;20038;-37
2023/11/11 11:12:06;;;;;;;5.20;2.85;;;9.40;99.90;;;;;;5003634;28;20047;-36
2023/11/11 11:14:46;;;;;;;5.85;2.70;;;9.40;99.90;;;;;;5081643;28;20035;-37
2023/11/11 11:17:12;;;;;;;3.65;2.47;;;9.40;99.90;;;;;;5081116;28;20032;-37
2023/11/11 11:19:51;;;;;;;3.13;2.40;;;9.30;99.90;;;;;;5080965;28;20032;-37
2023/11/11 11:22:17;;;;;;;5.32;2.53;;;9.30;99.90;;;;;;5080451;28;20047;-36
2023/11/11 11:24:45;;;;;;;3.20;2.45;;;9.30;99.90;;;;;;5081233;28;20032;-36
2023/11/11 11:27:12;;;;;;;2.58;2.10;;;9.40;99.90;;;;;;5080168;28;20485;-36
2023/11/11 11:29:38;;;;;;;2.92;2.03;;;9.40;99.90;;;;;;5081944;28;20161;-36
2023/11/11 11:32:11;;;;;;;4.03;2.50;;;9.50;99.90;;;;;;5081911;28;20452;-37
2023/11/11 11:34:40;;;;;;;;;;;9.50;99.90;;;;;;5080836;28;20024;-37
2023/11/11 11:37:11;;;;;;;6.40;2.03;;;9.50;99.90;;;;;;5081221;28;19908;-37
2023/11/11 11:39:56;;;;;;;2.42;1.90;;;9.50;99.90;;;;;;5081492;28;20356;-36
2023/11/11 11:42:27;;;;;;;2.15;1.50;;;9.50;99.90;;;;;;5073436;28;20055;-37
2023/11/11 11:44:54;;;;;;;4.13;2.15;;;9.50;99.90;;;;;;5082079;28;20048;-37
2023/11/11 11:47:21;;;;;;;4.45;1.80;;;9.50;99.90;;;;;;5080548;28;20043;-36
2023/11/11 11:49:49;;;;;;;2.50;1.65;;;9.40;99.90;;;;;;5079799;28;20128;-38
2023/11/11 11:52:15;;;;;;;2.83;1.70;;;9.50;99.90;;;;;;5069050;28;20028;-37
2023/11/11 11:54:41;;;;;;;2.38;1.50;;;9.40;99.90;;;;;;5078625;28;20035;-36
2023/11/11 11:57:08;;;;;;;1.70;1.20;;;9.50;99.90;;;;;;5068444;28;20016;-36
2023/11/11 11:59:34;;;;;;;2.13;1.35;;;9.50;99.90;;;;;;5060824;28;20028;-37
2023/11/11 12:02:00;;;;;;;2.08;1.17;;;9.50;99.90;;;;;;5071880;28;20096;-36
2023/11/11 12:04:27;;;;;;;2.17;1.27;;;9.60;99.90;;;;;;5061589;28;20020;-37
2023/11/11 12:06:53;;;;;;;1.42;1.02;;;9.60;99.90;;;;;;5073403;28;20031;-37
2023/11/11 12:09:22;;;;;;;1.52;0.98;;;9.60;99.90;;;;;;5059507;28;20020;-37
2023/11/11 12:11:47;;;;;;;1.92;1.00;;;9.60;99.90;;;;;;5070705;28;20507;-37
2023/11/11 12:14:17;;;;;;;2.03;1.20;;;9.50;99.90;;;;;;5061783;28;20102;-36
2023/11/11 12:16:51;;;;;;;2.45;1.23;;;9.60;99.90;;;;;;5068337;28;20115;-36
2023/11/11 12:19:21;;;;;;;3.10;1.20;;;9.60;99.90;;;;;;5063105;28;20037;-37
2023/11/11 12:21:50;;;;;;;1.10;1.00;;;9.60;99.90;;;;;;5067798;28;20768;-36
2023/11/11 12:24:17;;;;;;;1.83;1.00;;;9.50;99.90;;;;;;5063638;28;20021;-37
2023/11/11 12:26:47;;;;;;;2.15;0.93;;;9.50;99.90;;;;;;5066535;28;20329;-37
2023/11/11 12:29:13;;;;;;;2.38;0.80;;;9.50;99.90;;;;;;5065853;28;20036;-37
2023/11/11 12:31:48;;;;;;;1.23;0.82;;;9.60;99.90;;;;;;5063999;28;20649;-37
2023/11/11 12:34:15;;;;;;;2.80;1.30;;;9.60;99.90;;;;;;5067663;28;20016;-38
2023/11/11 12:36:41;;;;;;;2.35;1.30;;;9.70;99.90;;;;;;5061852;28;20063;-37
2023/11/11 12:39:11;;;;;;;1.98;1.10;;;9.70;99.90;;;;;;5070318;28;20107;-37
2023/11/11 12:41:41;;;;;;;1.95;0.98;;;9.70;99.90;;;;;;5061983;28;20032;-36
2023/11/11 12:44:10;;;;;;;1.92;1.13;;;9.70;99.90;;;;;;5070600;28;20149;-46
2023/11/11 12:46:45;;;;;;;1.33;0.95;;;9.70;99.90;;;;;;5062253;28;20071;-40
2023/11/11 12:49:13;;;;;;;1.25;1.00;;;9.70;99.90;;;;;;5071325;28;20139;-36
2023/11/11 12:51:39;;;;;;;1.30;1.10;;;9.70;99.90;;;;;;5060112;28;20032;-36
2023/11/11 12:54:06;;;;;;;1.60;1.15;;;9.80;99.90;;;;;;5070431;28;20021;-36
2023/11/11 12:56:32;;;;;;;1.73;1.13;;;9.80;99.90;;;;;;5058656;28;20068;-36